Time;durP1;ratioP1;P1;durP2;ratioP2;P2;SDS_P1;SDS_P2;PMS_P1;PMS_P2;Temp;Humidity;BMP_temperature;BMP_pressure;BME280_temperature;BME280_humidity;BME280_pressure;Samples;Min_cycle;Max_cycle;Signal;HPM_P1;HPM_P2
2022/06/04 00:01:54;;;;;;;9.23;8.52;;;17.20;99.90;;;-141.84;100.00;16880.22;5071295;28;20303;-57
2022/06/04 00:04:22;;;;;;;9.40;8.70;;;17.20;99.90;;;-141.84;100.00;16851.78;5071836;28;20207;-58
2022/06/04 00:06:51;;;;;;;9.35;8.50;;;17.20;99.90;;;-141.84;100.00;16845.69;5071110;28;20228;-59
2022/06/04 00:09:21;;;;;;;9.10;8.40;;;17.20;99.90;;;-141.84;100.00;16784.78;5071207;28;20224;-58
2022/06/04 00:17:23;;;;;;;9.23;8.52;;;17.10;99.90;;;-141.84;100.00;16843.66;5051221;28;20224;-59
2022/06/04 00:19:52;;;;;;;8.85;8.25;;;17.10;99.90;;;-141.84;100.00;16815.22;5051336;28;20201;-58
2022/06/04 00:22:20;;;;;;;9.35;8.55;;;17.10;99.90;;;-141.84;100.00;16831.47;5063063;28;20228;-58
2022/06/04 00:24:48;;;;;;;8.90;8.20;;;17.10;99.90;;;-141.84;100.00;16778.69;5069710;28;20247;-56
2022/06/04 00:27:19;;;;;;;8.93;8.23;;;17.00;99.90;;;-141.84;100.00;16782.75;5050694;28;20932;-57
2022/06/04 00:29:49;;;;;;;9.55;8.85;;;17.00;99.90;;;-141.84;100.00;16774.63;5062019;28;20315;-59
2022/06/04 00:32:19;;;;;;;9.05;8.32;;;17.00;99.90;;;-141.84;100.00;16768.53;5071034;28;20231;-57
2022/06/04 00:34:47;;;;;;;9.00;8.30;;;17.00;99.90;;;-141.84;100.00;16819.28;5071344;28;20203;-59
2022/06/04 00:37:15;;;;;;;8.82;8.13;;;17.10;99.90;;;-141.84;98.69;16951.31;5071768;28;20300;-58
2022/06/04 00:39:45;;;;;;;8.90;8.20;;;17.10;99.90;;;-141.84;96.93;17002.06;5070908;28;20228;-59
2022/06/04 00:42:17;;;;;;;8.50;7.80;;;17.10;99.90;;;-141.84;94.44;17125.97;5070703;28;20220;-58
2022/06/04 00:45:58;;;;;;;9.20;8.30;;;17.20;99.90;;;-141.84;93.92;17093.47;5071155;28;20297;-59
2022/06/04 00:48:27;;;;;;;8.40;7.70;;;17.30;99.90;;;-141.84;95.48;17071.13;5070577;28;20228;-58
2022/06/04 00:50:56;;;;;;;8.18;7.57;;;17.30;99.90;;;-141.84;96.85;16995.97;5071126;28;20224;-56
2022/06/04 00:53:24;;;;;;;8.77;7.97;;;17.20;99.90;;;-141.84;98.32;16912.72;5070845;28;20220;-58
2022/06/04 00:56:15;;;;;;;9.70;8.90;;;17.20;99.90;;;-141.84;99.23;16914.75;5070935;28;20623;-60
2022/06/04 00:59:02;;;;;;;9.55;8.75;;;17.20;99.90;;;-141.84;99.10;16898.50;5070859;28;20212;-58
2022/06/04 01:01:42;;;;;;;9.55;8.68;;;17.20;99.90;;;-141.84;99.97;16876.16;5071285;28;20700;-59
2022/06/04 01:07:40;;;;;;;9.13;8.43;;;17.10;99.90;;;-141.84;97.75;16945.22;5070003;28;20217;-59
2022/06/04 01:10:31;;;;;;;9.27;8.57;;;17.10;99.90;;;-141.84;97.88;16939.13;5071305;28;20223;-58
2022/06/04 01:13:22;;;;;;;9.70;8.70;;;17.10;99.90;;;-141.84;98.32;16916.78;5083674;28;20220;-58
2022/06/04 01:16:02;;;;;;;9.52;8.73;;;17.00;99.90;;;-141.84;99.08;16855.84;5072585;28;20232;-59
2022/06/04 01:18:42;;;;;;;9.45;8.52;;;17.00;99.90;;;-141.84;97.67;16943.19;5070666;28;20216;-59
2022/06/04 01:21:22;;;;;;;9.45;8.68;;;17.00;99.90;;;-141.84;96.24;17022.38;5074439;28;20322;-58
2022/06/04 01:24:33;;;;;;;8.85;8.15;;;17.10;99.90;;;-141.84;96.48;17006.13;5074315;28;20597;-57
2022/06/04 01:27:16;;;;;;;8.98;8.18;;;17.10;99.90;;;-141.84;96.46;16985.81;5073192;28;20228;-59
2022/06/04 01:29:55;;;;;;;9.63;8.68;;;17.10;99.90;;;-141.84;97.80;16937.09;5074300;28;20315;-58
2022/06/04 01:32:31;;;;;;;9.77;8.88;;;17.10;99.90;;;-141.84;98.17;16943.19;5074583;28;20315;-58
2022/06/04 01:35:10;;;;;;;9.73;8.93;;;17.10;99.90;;;-141.84;99.61;16863.97;5074279;28;20238;-59
2022/06/04 01:37:46;;;;;;;9.35;8.60;;;17.10;99.90;;;-141.84;100.00;16835.53;5074274;28;20242;-59
2022/06/04 01:43:14;;;;;;;10.18;9.38;;;17.00;99.90;;;-141.84;100.00;16766.50;5074207;28;20222;-58
2022/06/04 01:45:45;;;;;;;10.63;9.68;;;17.00;99.90;;;-141.84;100.00;16754.31;5074315;28;20308;-58
2022/06/04 01:48:18;;;;;;;10.82;9.93;;;16.90;99.90;;;-141.84;100.00;16792.91;5074010;28;20703;-59
2022/06/04 01:50:52;;;;;;;10.80;9.73;;;17.00;99.90;;;-141.84;100.00;16780.72;5074244;28;20784;-59
2022/06/04 01:53:28;;;;;;;11.43;10.38;;;16.90;99.90;;;-141.84;100.00;16774.63;5074237;28;20224;-58
2022/06/04 01:56:02;;;;;;;10.65;9.85;;;16.90;99.90;;;-141.84;100.00;16780.72;5074216;28;20231;-57
2022/06/04 01:58:39;;;;;;;10.50;9.70;;;16.90;99.90;;;-141.84;100.00;16768.53;5074522;28;20280;-58
2022/06/04 02:01:13;;;;;;;11.27;10.18;;;16.80;99.90;;;-141.84;100.00;16813.19;5054143;28;20205;-59
2022/06/04 02:03:48;;;;;;;11.32;10.43;;;16.70;99.90;;;-141.84;100.00;16770.56;5050303;28;20750;-60
2022/06/04 02:06:22;;;;;;;12.43;11.43;;;16.70;99.90;;;-141.84;100.00;16805.09;5053654;28;20227;-58
2022/06/04 02:08:56;;;;;;;12.43;11.43;;;16.70;99.90;;;-141.84;100.00;16823.34;5053639;28;20447;-58
2022/06/04 02:11:26;;;;;;;12.70;11.60;;;16.60;99.90;;;-141.84;100.00;16845.69;5053496;28;20236;-58
2022/06/04 02:14:03;;;;;;;12.45;11.48;;;16.60;99.90;;;-141.84;100.00;16825.38;5051996;28;20324;-58
2022/06/04 02:16:39;;;;;;;12.07;11.07;;;16.60;99.90;;;-141.84;100.00;16849.75;5054506;28;20181;-57
2022/06/04 02:19:08;;;;;;;11.90;11.00;;;16.60;99.90;;;-141.84;100.00;16857.88;5046806;28;20244;-59
2022/06/04 02:21:36;;;;;;;12.15;11.15;;;16.50;99.90;;;-141.84;100.00;16829.44;5053208;28;20666;-59
2022/06/04 02:24:07;;;;;;;13.60;12.50;;;16.50;99.90;;;-141.84;100.00;16831.47;5053574;28;20312;-59
2022/06/04 02:26:36;;;;;;;13.70;12.70;;;16.50;99.90;;;-141.84;100.00;16845.69;5037476;28;20735;-58
2022/06/04 02:29:06;;;;;;;14.13;12.85;;;16.60;99.90;;;-141.84;100.00;16841.63;5033400;28;20637;-59
2022/06/04 02:31:43;;;;;;;14.98;13.55;;;16.60;99.90;;;-141.84;100.00;16817.25;5033764;28;20619;-60
2022/06/04 02:34:23;;;;;;;14.52;13.35;;;16.60;99.90;;;-141.84;100.00;16796.97;5034137;28;20182;-58
2022/06/04 02:37:11;;;;;;;14.40;13.20;;;16.50;99.90;;;-141.84;100.00;16823.34;5033469;28;20221;-58
2022/06/04 02:39:50;;;;;;;14.40;13.10;;;16.50;99.90;;;-141.84;100.00;16823.34;5033225;28;20234;-57
2022/06/04 02:42:30;;;;;;;14.50;13.25;;;16.50;99.90;;;-141.84;100.00;16807.13;5034249;28;20232;-58
2022/06/04 02:45:10;;;;;;;14.00;12.90;;;16.50;99.90;;;-141.84;100.00;16803.06;5072674;28;20613;-60
2022/06/04 02:47:44;;;;;;;14.52;13.38;;;16.50;99.90;;;-141.84;100.00;16805.09;5073312;28;20231;-58
2022/06/04 02:50:22;;;;;;;15.27;13.98;;;16.50;99.90;;;-141.84;100.00;16823.34;5072863;28;20242;-59
2022/06/04 02:52:53;;;;;;;16.10;14.70;;;16.50;99.90;;;-141.84;100.00;16835.53;5072888;28;20370;-58
2022/06/04 02:55:26;;;;;;;16.65;15.23;;;16.50;99.90;;;-141.84;100.00;16829.44;5073500;28;20197;-57
2022/06/04 02:58:02;;;;;;;17.00;15.48;;;16.50;99.90;;;-141.84;100.00;16829.44;5072483;28;20255;-58
2022/06/04 03:00:32;;;;;;;17.17;15.48;;;16.50;99.90;;;-141.84;100.00;16713.69;5072615;28;20242;-59
2022/06/04 03:03:00;;;;;;;15.13;13.85;;;16.50;99.90;;;-141.84;100.00;16667.00;5066055;28;20225;-59
2022/06/04 03:05:30;;;;;;;16.13;14.85;;;16.50;99.90;;;-141.84;100.00;16699.47;5052856;28;20229;-58
2022/06/04 03:08:05;;;;;;;16.98;15.57;;;16.50;99.90;;;-141.84;100.00;16746.19;5052918;28;20264;-58
2022/06/04 03:10:36;;;;;;;15.88;14.50;;;16.50;99.90;;;-141.84;100.00;16746.19;5052227;28;20688;-58
2022/06/04 03:13:04;;;;;;;16.10;14.65;;;16.50;99.90;;;-141.84;100.00;16695.41;5056667;28;20640;-56
2022/06/04 03:15:34;;;;;;;14.95;13.75;;;16.60;99.90;;;-141.84;100.00;16697.44;5072537;28;20252;-59
2022/06/04 03:18:02;;;;;;;15.15;13.90;;;16.60;99.90;;;-141.84;100.00;16646.69;5065700;28;20727;-58
2022/06/04 03:20:31;;;;;;;15.32;14.02;;;16.60;99.90;;;-141.84;100.00;16644.66;5052503;28;20225;-58
2022/06/04 03:23:00;;;;;;;15.77;14.43;;;16.60;99.90;;;-141.84;100.00;16636.53;5052475;28;20646;-59
2022/06/04 03:25:28;;;;;;;15.55;14.07;;;16.60;99.90;;;-141.84;100.00;16667.00;5046157;28;20191;-59
2022/06/04 03:27:56;;;;;;;15.80;14.60;;;16.50;99.90;;;-141.84;100.00;16662.94;5032251;28;20234;-58
2022/06/04 03:30:32;;;;;;;17.05;15.55;;;16.60;99.90;;;-141.84;100.00;16648.72;5032339;28;20582;-59
2022/06/04 03:33:01;;;;;;;16.52;15.13;;;16.50;99.90;;;-141.84;100.00;16660.91;5032221;28;20737;-58
2022/06/04 03:35:29;;;;;;;17.10;15.70;;;16.40;99.90;;;-141.84;100.00;16699.47;5032396;28;20236;-60
2022/06/04 03:37:57;;;;;;;15.98;14.68;;;16.50;99.90;;;-141.84;100.00;16648.72;5032159;28;20225;-58
2022/06/04 03:40:25;;;;;;;15.60;14.20;;;16.50;99.90;;;-141.84;100.00;16620.28;5032330;28;20344;-59
2022/06/04 03:42:54;;;;;;;15.13;13.93;;;16.50;99.90;;;-141.84;100.00;16626.38;5040370;28;20312;-58
2022/06/04 03:45:24;;;;;;;14.68;13.48;;;16.50;99.90;;;-141.84;100.00;16630.44;5071853;28;20228;-58
2022/06/04 03:47:54;;;;;;;13.77;12.68;;;16.50;99.90;;;-141.84;100.00;16638.56;5072092;28;20311;-60
2022/06/04 03:50:25;;;;;;;13.52;12.43;;;16.50;99.90;;;-141.84;100.00;16597.94;5071734;28;20651;-59
2022/06/04 03:52:54;;;;;;;13.70;12.60;;;16.50;99.90;;;-141.84;100.00;16608.09;5072107;28;20285;-58
2022/06/04 03:55:25;;;;;;;13.38;12.38;;;16.40;99.90;;;-141.84;100.00;16595.91;5072383;28;20203;-58
2022/06/04 03:57:54;;;;;;;12.82;11.48;;;16.40;99.90;;;-141.84;98.69;16774.63;5071421;28;20328;-58
2022/06/04 04:00:27;;;;;;;12.90;11.80;;;16.50;99.90;;;-141.84;99.77;16683.22;5071608;28;20228;-59
2022/06/04 04:03:00;;;;;;;12.48;11.48;;;16.60;99.90;;;-141.84;100.00;16628.41;5065748;28;20309;-58
2022/06/04 04:05:32;;;;;;;13.15;12.02;;;16.60;99.90;;;-141.84;100.00;16602.00;5051758;28;20221;-57
2022/06/04 04:08:02;;;;;;;12.80;11.80;;;16.50;99.90;;;-141.84;100.00;16577.63;5051770;28;20328;-57
2022/06/04 04:10:32;;;;;;;13.45;12.25;;;16.50;99.90;;;-141.84;100.00;16624.34;5052220;28;20220;-57
2022/06/04 04:13:01;;;;;;;13.32;12.10;;;16.50;99.90;;;-141.84;100.00;16632.47;5055093;28;20221;-59
2022/06/04 04:15:30;;;;;;;12.63;11.63;;;16.50;99.90;;;-141.84;100.00;16599.97;5070647;28;20225;-59
2022/06/04 04:17:59;;;;;;;12.45;11.35;;;16.50;99.90;;;-141.84;100.00;16583.72;5059696;28;20225;-56
2022/06/04 04:20:31;;;;;;;12.25;11.35;;;16.50;99.90;;;-141.84;100.00;16618.25;5051289;28;20665;-60
2022/06/04 04:23:01;;;;;;;11.27;10.43;;;16.50;99.90;;;-141.84;100.00;16669.03;5051880;28;20232;-58
2022/06/04 04:25:31;;;;;;;12.07;11.15;;;16.50;99.90;;;-141.84;99.82;16689.31;5044723;28;20772;-59
2022/06/04 04:28:01;;;;;;;11.73;10.60;;;16.50;99.90;;;-141.84;100.00;16644.66;5031282;28;20225;-57
2022/06/04 04:30:33;;;;;;;10.55;9.68;;;16.50;99.90;;;-141.84;100.00;16658.88;5031348;28;20265;-58
2022/06/04 04:33:04;;;;;;;12.00;10.98;;;16.50;99.90;;;-141.84;100.00;16664.97;5031629;28;20312;-59
2022/06/04 04:35:35;;;;;;;12.35;11.07;;;16.60;99.90;;;-141.84;100.00;16681.19;5031280;28;20309;-57
2022/06/04 04:38:05;;;;;;;11.85;10.85;;;16.60;99.90;;;-141.84;96.87;16829.44;5031572;28;20230;-58
2022/06/04 04:40:35;;;;;;;12.15;10.88;;;16.60;99.90;;;-141.84;93.54;16949.28;5031110;28;20300;-59
2022/06/04 04:43:03;;;;;;;11.23;10.30;;;16.70;99.90;;;-141.84;93.16;16985.81;5042925;28;20201;-58
2022/06/04 04:45:31;;;;;;;10.70;9.90;;;16.70;99.90;;;-141.84;94.01;16965.50;5071240;28;20430;-56
2022/06/04 04:48:01;;;;;;;11.43;10.52;;;16.70;99.90;;;-141.84;93.88;16963.47;5071462;28;20307;-57
2022/06/04 04:50:34;;;;;;;11.15;10.20;;;16.70;99.90;;;-141.84;93.21;16991.91;5072885;28;20284;-58
2022/06/04 04:53:05;;;;;;;11.45;10.55;;;16.70;99.90;;;-141.84;92.67;17020.34;5075635;28;20311;-58
2022/06/04 04:55:35;;;;;;;11.65;10.50;;;16.70;99.90;;;-141.84;92.62;17034.56;5075288;28;20189;-60
2022/06/04 04:58:04;;;;;;;10.98;10.07;;;16.60;99.90;;;-141.84;91.66;17081.28;5075546;28;20295;-59
2022/06/04 05:00:33;;;;;;;11.43;10.30;;;16.70;99.90;;;-141.84;91.24;17089.41;5075080;28;20221;-58
2022/06/04 05:03:03;;;;;;;12.25;11.15;;;16.70;99.90;;;-141.84;91.30;17050.81;5067601;28;20225;-60
2022/06/04 05:05:32;;;;;;;12.25;11.07;;;16.70;99.90;;;-141.84;92.04;17065.03;5055021;28;20699;-59
2022/06/04 05:08:01;;;;;;;12.55;11.48;;;16.70;99.90;;;-141.84;93.55;17006.13;5054742;28;20225;-58
2022/06/04 05:10:29;;;;;;;12.63;11.52;;;16.60;99.90;;;-141.84;94.13;16937.09;5055488;28;20232;-58
2022/06/04 05:12:58;;;;;;;12.70;11.68;;;16.60;99.90;;;-141.84;93.93;16981.75;5057363;28;20224;-59
2022/06/04 05:15:26;;;;;;;12.77;11.77;;;16.50;99.90;;;-141.84;94.96;16920.84;5074559;28;20225;-58
2022/06/04 05:17:54;;;;;;;12.02;11.05;;;16.50;99.90;;;-141.84;94.54;16928.97;5074595;28;20328;-58
2022/06/04 05:20:22;;;;;;;12.55;11.48;;;16.50;99.90;;;-141.84;94.40;16933.03;5074729;28;20312;-59
2022/06/04 05:22:52;;;;;;;12.07;11.07;;;16.50;99.90;;;-141.84;93.77;16995.97;5074755;28;20205;-58
2022/06/04 05:25:20;;;;;;;12.48;11.48;;;16.50;99.90;;;-141.84;93.10;17030.50;5069320;28;20288;-59
2022/06/04 05:27:49;;;;;;;11.52;10.63;;;16.60;99.90;;;-141.84;92.28;17056.91;5054078;28;20639;-58
2022/06/04 05:30:17;;;;;;;11.40;10.50;;;16.60;99.90;;;-141.84;92.25;17058.94;5054416;28;20225;-58
2022/06/04 05:32:46;;;;;;;12.20;11.15;;;16.70;99.90;;;-141.84;91.40;17119.88;5054299;28;20225;-60
2022/06/04 05:35:14;;;;;;;11.98;10.98;;;16.80;99.90;;;-141.84;91.96;17091.44;5054241;28;20684;-59
2022/06/04 05:37:43;;;;;;;12.20;11.30;;;16.80;99.90;;;-141.84;91.60;17095.50;5054419;28;20197;-58
2022/06/04 05:40:13;;;;;;;12.30;11.25;;;16.80;99.90;;;-141.84;90.75;17156.41;5054637;28;20215;-59
2022/06/04 05:42:41;;;;;;;11.40;10.50;;;16.90;99.90;;;-141.84;91.09;17142.22;5054545;28;20346;-59
2022/06/04 05:45:10;;;;;;;11.10;10.20;;;16.90;99.90;;;-141.84;90.31;17184.84;5074091;28;20228;-58
2022/06/04 05:47:38;;;;;;;11.40;10.50;;;16.90;99.90;;;-141.84;88.93;17262.03;5073981;28;20232;-60
2022/06/04 05:50:07;;;;;;;10.77;9.88;;;17.10;99.90;;;-141.84;89.36;17262.03;5073887;28;20676;-60
2022/06/04 05:52:35;;;;;;;10.05;9.15;;;17.10;99.90;;;-141.84;88.69;17294.53;5074254;28;20205;-59
2022/06/04 05:55:05;;;;;;;10.63;9.65;;;17.20;99.90;;;-141.84;88.91;17294.53;5074399;28;20211;-59
2022/06/04 05:57:34;;;;;;;9.73;9.02;;;17.20;99.90;;;-141.84;88.15;17339.22;5073479;28;20247;-58
2022/06/04 06:00:07;;;;;;;10.07;9.23;;;17.30;99.90;;;-141.84;86.97;17459.06;5060385;28;20317;-60
2022/06/04 06:02:35;;;;;;;9.57;8.68;;;17.30;99.90;;;-141.84;83.93;17714.97;5053267;28;20209;-57
2022/06/04 06:05:05;;;;;;;8.65;8.05;;;17.60;99.90;;;-141.84;83.98;17690.59;5073627;28;20737;-57
2022/06/04 06:07:33;;;;;;;8.40;7.80;;;17.60;99.90;;;-141.84;82.01;17869.34;5068176;28;20287;-57
2022/06/04 06:10:02;;;;;;;9.18;8.32;;;17.80;99.90;;;-141.84;78.11;18115.16;5074078;28;20201;-58
2022/06/04 06:12:30;;;;;;;9.75;8.85;;;18.10;99.90;;;-141.84;77.07;18184.22;5073308;28;20270;-59
2022/06/04 06:14:59;;;;;;;8.57;7.97;;;18.30;99.90;;;-141.84;75.15;18239.09;5073736;28;20426;-60
2022/06/04 06:17:27;;;;;;;8.52;7.78;;;18.40;99.90;;;-141.84;75.43;18273.63;5073729;28;20664;-57
2022/06/04 06:19:55;;;;;;;8.70;8.00;;;18.50;99.90;;;-141.84;75.58;18271.59;5073736;28;20232;-59
2022/06/04 06:22:24;;;;;;;7.70;7.10;;;18.50;99.90;;;-141.84;75.72;18271.59;5074078;28;20200;-59
2022/06/04 06:24:52;;;;;;;8.15;7.45;;;18.30;99.90;;;-141.84;74.81;18285.81;5071397;28;20220;-59
2022/06/04 06:27:20;;;;;;;8.50;7.80;;;18.30;99.90;;;-141.84;75.66;18285.81;5067457;28;20244;-59
2022/06/04 06:29:48;;;;;;;8.38;7.78;;;18.30;99.90;;;-141.84;75.40;18283.78;5073359;28;20220;-57
2022/06/04 06:32:19;;;;;;;8.20;7.50;;;18.30;99.90;;;-141.84;72.84;18354.88;5073275;28;20243;-59
2022/06/04 06:34:47;;;;;;;7.38;6.78;;;18.50;99.90;;;-141.84;72.61;18391.44;5073468;28;20699;-59
2022/06/04 06:37:15;;;;;;;7.03;6.53;;;18.60;99.90;;;-141.84;73.57;18367.06;5073814;28;20287;-59
2022/06/04 06:39:43;;;;;;;7.35;6.85;;;18.60;99.90;;;-141.84;74.97;18358.94;5072815;28;20235;-59
2022/06/04 06:42:12;;;;;;;8.13;7.50;;;18.70;99.90;;;-141.84;73.27;18399.56;5072441;28;20761;-59
2022/06/04 06:44:40;;;;;;;7.00;6.50;;;18.80;99.90;;;-141.84;72.13;18456.47;5072986;28;20483;-59
2022/06/04 06:47:08;;;;;;;8.77;7.90;;;18.90;99.90;;;-141.84;72.62;18450.38;5056308;28;20313;-58
2022/06/04 06:49:38;;;;;;;8.23;7.53;;;18.80;99.90;;;-141.84;71.20;18434.13;5064010;28;20285;-59
2022/06/04 06:52:13;;;;;;;7.90;7.20;;;18.90;99.90;;;-141.84;70.21;18474.75;5057731;28;20284;-60
2022/06/04 06:54:41;;;;;;;6.40;5.80;;;18.80;99.90;;;-141.84;71.67;18448.34;5064986;28;20266;-59
2022/06/04 06:57:12;;;;;;;8.18;7.40;;;18.90;99.90;;;-141.84;69.71;18547.88;5069168;28;20220;-59
2022/06/04 06:59:43;;;;;;;8.38;7.70;;;19.10;99.90;;;-141.84;69.86;18527.56;5054037;28;20229;-59
2022/06/04 07:02:12;;;;;;;7.40;6.80;;;19.10;99.90;;;-141.84;71.18;18499.13;5052458;28;20303;-59
2022/06/04 07:04:42;;;;;;;8.35;7.65;;;19.00;99.90;;;-141.84;69.90;18517.41;5052435;28;20208;-59
2022/06/04 07:07:10;;;;;;;7.05;6.55;;;19.00;99.90;;;-141.84;70.67;18484.91;5065068;28;20706;-60
2022/06/04 07:09:42;;;;;;;7.93;7.20;;;19.10;99.90;;;-141.84;68.81;18529.59;5068076;28;20227;-58
2022/06/04 07:12:12;;;;;;;9.43;7.95;;;19.10;99.90;;;-141.84;68.41;18582.44;5059227;28;20244;-59
2022/06/04 07:14:41;;;;;;;9.50;8.68;;;19.10;99.90;;;-141.84;69.23;18545.84;5053133;28;20301;-59
2022/06/04 07:17:09;;;;;;;9.02;8.23;;;19.00;99.90;;;-141.84;68.21;18602.75;5050635;28;20735;-59
2022/06/04 07:19:38;;;;;;;8.32;7.63;;;19.20;99.90;;;-141.84;67.28;18600.72;5065782;28;20284;-60
2022/06/04 07:22:08;;;;;;;10.45;7.88;;;19.20;99.90;;;-141.84;67.84;18590.56;5051570;28;20212;-63
2022/06/04 07:24:36;;;;;;;8.68;7.97;;;19.30;99.90;;;-141.84;67.10;18604.78;5050796;28;20213;-60
2022/06/04 07:27:06;;;;;;;8.32;7.63;;;19.40;99.90;;;-141.84;66.40;18647.44;5032678;28;20767;-58
2022/06/04 07:29:34;;;;;;;9.20;8.20;;;19.30;99.90;;;-141.84;66.54;18643.38;5049696;28;20217;-60
2022/06/04 07:32:04;;;;;;;9.50;8.02;;;19.30;99.90;;;-141.84;66.79;18604.78;5045375;28;20278;-58
2022/06/04 07:34:32;;;;;;;8.13;7.53;;;19.30;99.90;;;-141.84;66.47;18639.31;5055672;28;20546;-60
2022/06/04 07:37:00;;;;;;;8.63;7.95;;;19.40;99.90;;;-141.84;65.44;18675.88;5049431;28;20261;-60
2022/06/04 07:39:30;;;;;;;7.55;6.93;;;19.40;99.90;;;-141.84;65.57;18679.94;5059517;28;20308;-60
2022/06/04 07:41:58;;;;;;;7.68;7.10;;;19.40;99.90;;;-141.84;66.68;18667.75;5046757;28;20229;-59
2022/06/04 07:44:27;;;;;;;7.93;7.22;;;19.50;99.90;;;-141.84;64.42;18738.88;5062417;28;20685;-58
2022/06/04 07:46:58;;;;;;;8.07;7.43;;;19.60;99.90;;;-141.84;63.97;18712.47;5051081;28;20217;-60
2022/06/04 07:49:26;;;;;;;8.35;7.65;;;19.60;99.90;;;-141.84;63.81;18722.63;5051829;28;20562;-59
2022/06/04 07:51:55;;;;;;;8.45;7.68;;;19.70;99.90;;;-141.84;63.43;18767.31;5050735;28;20317;-60
2022/06/04 07:54:24;;;;;;;8.02;7.43;;;19.80;99.90;;;-141.84;63.75;18749.03;5066461;28;20294;-60
2022/06/04 07:56:54;;;;;;;8.35;7.65;;;19.80;99.90;;;-141.84;63.95;18740.91;5059670;28;20739;-59
2022/06/04 07:59:24;;;;;;;8.48;7.78;;;19.80;99.90;;;-141.84;63.21;18779.50;5049839;28;20232;-59
2022/06/04 08:01:53;;;;;;;8.75;7.85;;;19.80;99.90;;;-141.84;62.28;18816.06;5050944;28;20654;-62
2022/06/04 08:04:21;;;;;;;8.25;7.55;;;19.90;99.90;;;-141.84;61.68;18838.44;5051447;28;20200;-59
2022/06/04 08:06:49;;;;;;;7.78;7.07;;;19.90;99.90;;;-141.84;61.36;18850.63;5088459;28;20569;-62
2022/06/04 08:09:18;;;;;;;8.40;7.60;;;19.90;99.90;;;-141.84;61.26;18885.16;5091178;28;20231;-59
2022/06/04 08:11:46;;;;;;;7.97;7.32;;;19.90;99.90;;;-141.84;61.43;18854.69;5090657;28;20310;-59
2022/06/04 08:14:21;;;;;;;7.65;7.03;;;19.90;99.90;;;-141.84;61.41;18848.59;5073589;28;20293;-59
2022/06/04 08:16:53;;;;;;;7.38;6.85;;;19.90;99.90;;;-141.84;61.16;18885.16;5064308;28;20192;-58
2022/06/04 08:19:23;;;;;;;8.15;7.45;;;20.00;99.90;;;-141.84;59.97;18909.53;5071449;28;20189;-58
2022/06/04 08:21:53;;;;;;;10.23;7.15;;;20.10;99.90;;;-141.84;60.12;18919.69;5070973;28;20319;-59
2022/06/04 08:24:24;;;;;;;7.90;7.30;;;20.20;99.90;;;-141.84;60.11;18925.81;5070608;28;20315;-60
2022/06/04 08:26:58;;;;;;;8.98;8.27;;;20.40;99.90;;;-141.84;58.94;18960.34;5062651;28;20229;-59
2022/06/04 08:29:31;;;;;;;8.70;8.00;;;20.50;99.90;;;-141.84;58.73;18931.91;5070718;28;20251;-59
2022/06/04 08:32:01;;;;;;;9.50;8.60;;;20.60;99.90;;;-141.84;58.41;18952.22;5070599;28;20628;-59
2022/06/04 08:34:30;;;;;;;9.60;8.70;;;20.60;99.90;;;-141.84;58.00;19037.56;5070995;28;20181;-57
2022/06/04 08:36:59;;;;;;;9.40;8.60;;;20.70;99.90;;;-141.84;58.46;18984.72;5069990;28;20216;-59
2022/06/04 08:39:28;;;;;;;9.05;8.15;;;20.80;99.90;;;-141.84;58.33;19039.59;5066813;28;20308;-58
2022/06/04 08:42:11;;;;;;;10.25;9.30;;;20.90;99.90;;;-141.84;57.79;19025.38;5069324;28;20232;-58
2022/06/04 08:44:46;;;;;;;9.05;8.25;;;20.90;99.90;;;-141.84;58.16;18958.31;5058251;28;20212;-60
2022/06/04 08:47:18;;;;;;;8.82;8.20;;;20.90;99.90;;;-141.84;58.14;19017.25;5067212;28;20631;-58
2022/06/04 08:49:51;;;;;;;9.88;9.02;;;20.90;99.90;;;-141.84;58.25;19017.25;5053653;28;20288;-58
2022/06/04 08:52:25;;;;;;;9.75;8.85;;;21.10;99.90;;;-141.84;57.43;19021.31;5061125;28;20209;-59
2022/06/04 08:57:53;;;;;;;8.65;7.85;;;20.90;99.90;;;-141.84;58.65;19041.63;5069281;28;20223;-56
2022/06/04 09:00:33;;;;;;;9.27;8.48;;;20.90;99.90;;;-141.84;58.51;19021.31;5061682;28;20332;-58
2022/06/04 09:03:14;;;;;;;9.27;8.38;;;21.10;99.90;;;-141.84;58.20;19068.03;5046468;28;20238;-59
2022/06/04 09:06:13;;;;;;;10.20;9.18;;;21.10;99.90;;;-141.84;57.05;19120.88;5059858;28;20348;-58
2022/06/04 09:08:54;;;;;;;9.68;8.88;;;21.30;99.90;;;-141.84;55.24;19181.81;5069528;28;20220;-57
2022/06/04 09:11:33;;;;;;;9.48;8.52;;;21.60;99.90;;;-141.84;55.26;19187.91;5070936;28;20311;-58
2022/06/04 09:14:24;;;;;;;8.85;8.15;;;21.70;99.90;;;-141.84;55.41;19167.59;5047252;28;20237;-57
2022/06/04 09:17:01;;;;;;;9.48;8.68;;;21.90;99.90;;;-141.84;55.07;19208.25;5060268;28;20279;-59
2022/06/04 09:19:36;;;;;;;10.00;9.20;;;22.00;99.90;;;-141.84;55.72;19192.00;5045336;28;20189;-56
2022/06/04 09:22:19;;;;;;;10.48;9.57;;;21.80;99.90;;;-141.84;55.14;19202.16;5056929;28;20196;-58
2022/06/04 09:24:48;;;;;;;10.05;9.20;;;21.80;99.90;;;-141.84;55.57;19169.63;5049805;28;20240;-59
2022/06/04 09:27:33;;;;;;;9.50;8.70;;;21.90;99.90;;;-141.84;53.95;19269.22;5065180;28;20731;-59
2022/06/04 09:30:25;;;;;;;8.77;8.07;;;22.10;99.90;;;-141.84;54.69;19240.75;5069731;28;20757;-60
2022/06/04 09:33:19;;;;;;;9.55;8.75;;;22.20;99.90;;;-141.84;54.09;19293.59;5069680;28;20228;-58
2022/06/04 09:35:48;;;;;;;9.27;8.32;;;22.40;99.90;;;-141.84;54.14;19281.41;5069859;28;20229;-57
2022/06/04 09:38:24;;;;;;;9.90;9.15;;;22.40;99.90;;;-141.84;53.78;19279.38;5073017;28;20625;-58
2022/06/04 09:41:03;;;;;;;9.38;8.52;;;22.40;99.90;;;-141.84;53.90;19285.47;5073576;28;20228;-54
2022/06/04 09:43:33;;;;;;;8.20;7.50;;;22.30;99.90;;;-141.84;54.31;19332.19;5072757;28;20251;-58
2022/06/04 09:46:08;;;;;;;7.30;6.70;;;22.50;99.90;;;-141.84;53.84;19354.56;5065664;28;20247;-58
2022/06/04 09:48:48;;;;;;;8.95;8.25;;;22.80;99.90;;;-141.84;52.07;19431.78;5073003;28;20233;-59
2022/06/04 09:51:22;;;;;;;11.00;8.23;;;22.90;99.90;;;-141.84;47.74;19452.09;5073465;28;20740;-56
2022/06/04 09:53:57;;;;;;;8.38;7.68;;;23.00;99.90;;;-141.84;47.12;19496.81;5072657;28;20224;-56
2022/06/04 09:56:35;;;;;;;9.05;8.35;;;23.30;99.90;;;-141.84;47.07;19458.19;5072510;28;20217;-57
2022/06/04 09:59:22;;;;;;;8.05;7.38;;;23.30;99.90;;;-141.84;46.27;19531.34;5072264;28;20232;-55
2022/06/04 10:01:57;;;;;;;9.35;8.45;;;23.50;99.90;;;-141.84;45.73;19517.13;5073479;28;20247;-57
2022/06/04 10:04:39;;;;;;;8.32;7.72;;;23.60;99.90;;;-141.84;46.10;19525.25;5072998;28;20181;-57
2022/06/04 10:07:11;;;;;;;9.07;8.32;;;23.50;99.90;;;-141.84;46.29;19521.19;5072404;28;20272;-55
2022/06/04 10:09:58;;;;;;;9.02;8.23;;;23.50;99.90;;;-141.84;46.96;19494.78;5063945;28;20234;-58
2022/06/04 10:15:30;;;;;;;8.85;8.25;;;23.70;99.90;;;-141.84;46.15;19547.59;5052744;28;20608;-59
2022/06/04 10:18:14;;;;;;;8.40;7.80;;;23.70;99.90;;;-141.84;44.56;19628.91;5060251;28;20673;-55
2022/06/04 10:20:57;;;;;;;9.00;8.27;;;24.00;99.90;;;-141.84;45.79;19545.56;5052102;28;20225;-59
2022/06/04 10:23:28;;;;;;;9.13;8.32;;;23.70;99.90;;;-141.84;46.71;19484.59;5056757;28;20231;-57
2022/06/04 10:26:29;;;;;;;8.63;7.93;;;23.50;99.90;;;-141.84;47.88;19419.59;5064201;28;20311;-56
2022/06/04 10:29:41;;;;;;;8.93;8.05;;;23.40;99.90;;;-141.84;48.10;19389.09;5063973;28;20216;-56
2022/06/04 10:32:30;;;;;;;8.65;7.95;;;23.10;99.90;;;-141.84;47.01;19460.22;5057337;28;20678;-57
2022/06/04 10:35:39;;;;;;;8.50;7.70;;;23.20;99.90;;;-141.84;46.05;19545.56;5059323;28;20723;-57
2022/06/04 10:38:26;;;;;;;7.68;7.07;;;23.40;99.90;;;-141.84;46.08;19504.94;5054307;28;20244;-57
2022/06/04 10:41:11;;;;;;;7.25;6.57;;;23.50;99.90;;;-141.84;45.19;19592.31;5063479;28;20221;-59